createdAt,value
2022-09-28T00:01:13.472Z,7.50
2022-09-28T00:03:41.646Z,7.02
2022-09-28T00:06:12.245Z,7.51
2022-09-28T00:08:39.547Z,7.36
2022-09-28T00:11:08.062Z,7.41
2022-09-28T00:13:35.285Z,7.30
2022-09-28T00:16:08.398Z,7.35
2022-09-28T00:18:36.109Z,7.06
2022-09-28T00:21:06.956Z,7.15
2022-09-28T00:23:34.991Z,7.08
2022-09-28T00:26:03.789Z,7.11
2022-09-28T00:28:31.436Z,7.19
2022-09-28T00:30:59.215Z,7.20
2022-09-28T00:33:25.973Z,7.24
2022-09-28T00:35:58.173Z,7.41
2022-09-28T00:38:31.120Z,7.39
2022-09-28T00:40:59.639Z,7.43
2022-09-28T00:43:28.042Z,7.52
2022-09-28T00:46:18.902Z,7.26
2022-09-28T00:48:59.270Z,7.31
2022-09-28T00:51:26.674Z,7.09
2022-09-28T00:53:56.104Z,7.12
2022-09-28T00:56:26.233Z,6.99
2022-09-28T00:58:54.712Z,7.06
2022-09-28T01:01:22.806Z,7.05
2022-09-28T01:03:53.665Z,7.15
2022-09-28T01:06:23.350Z,7.11
2022-09-28T01:08:52.120Z,6.86
2022-09-28T01:11:19.605Z,7.02
2022-09-28T01:13:48.805Z,6.96
2022-09-28T01:20:09.753Z,7.13
2022-09-28T01:23:09.390Z,7.26
2022-09-28T01:25:45.911Z,7.18
2022-09-28T01:28:18.194Z,7.22
2022-09-28T01:30:52.458Z,7.08
2022-09-28T01:33:26.414Z,7.15
2022-09-28T01:36:00.147Z,6.80
2022-09-28T01:38:49.382Z,7.24
2022-09-28T01:41:17.958Z,7.21
2022-09-28T01:43:53.766Z,7.26
2022-09-28T01:46:23.548Z,7.34
2022-09-28T01:48:55.358Z,7.42
2022-09-28T01:51:43.279Z,7.34
2022-09-28T01:54:15.041Z,7.24
2022-09-28T01:56:49.296Z,7.23
2022-09-28T02:00:06.369Z,7.42
2022-09-28T02:02:55.297Z,7.49
2022-09-28T02:05:36.301Z,7.55
2022-09-28T02:08:12.586Z,7.58
2022-09-28T02:11:03.920Z,7.50
2022-09-28T02:13:35.592Z,7.46
2022-09-28T02:16:22.972Z,7.52
2022-09-28T02:18:49.963Z,7.35
2022-09-28T02:21:39.574Z,7.56
2022-09-28T02:24:21.549Z,7.66
2022-09-28T02:26:52.073Z,7.50
2022-09-28T02:29:19.424Z,7.22
2022-09-28T02:31:46.152Z,7.18
2022-09-28T02:34:12.860Z,7.31
2022-09-28T02:36:39.950Z,7.34
2022-09-28T02:39:14.146Z,6.60
2022-09-28T02:42:06.933Z,7.14
2022-09-28T02:44:45.269Z,7.16
2022-09-28T02:47:22.658Z,6.99
2022-09-28T02:50:20.400Z,7.22
2022-09-28T02:52:58.280Z,7.25
2022-09-28T02:55:47.062Z,7.24
2022-09-28T02:58:14.434Z,7.18
2022-09-28T03:01:06.938Z,6.87
2022-09-28T03:03:48.913Z,6.93
2022-09-28T03:06:37.990Z,6.73
2022-09-28T03:09:12.367Z,6.67
2022-09-28T03:11:42.365Z,6.86
2022-09-28T03:14:10.018Z,6.89
2022-09-28T03:16:46.196Z,6.72
2022-09-28T03:19:13.676Z,6.85
2022-09-28T03:21:41.320Z,6.76
2022-09-28T03:24:11.146Z,6.72
2022-09-28T03:26:41.441Z,6.62
2022-09-28T03:29:09.905Z,6.57
2022-09-28T03:31:38.595Z,6.40
2022-09-28T03:34:05.627Z,6.51
2022-09-28T03:36:32.276Z,6.52
2022-09-28T03:38:59.674Z,5.85
2022-09-28T03:41:27.907Z,5.80
2022-09-28T03:43:54.906Z,5.98
2022-09-28T03:46:24.428Z,6.56
2022-09-28T03:48:58.216Z,6.61
2022-09-28T03:51:25.915Z,6.60
2022-09-28T03:53:53.558Z,6.75
2022-09-28T03:56:20.901Z,6.60
2022-09-28T03:58:47.678Z,6.83
2022-09-28T04:01:40.748Z,6.86
2022-09-28T04:04:12.882Z,6.90
2022-09-28T04:06:40.303Z,6.89
2022-09-28T04:09:08.373Z,6.43
2022-09-28T04:11:59.439Z,6.94
2022-09-28T04:14:22.627Z,6.90
2022-09-28T04:16:49.674Z,6.96
2022-09-28T04:19:17.526Z,6.97
2022-09-28T04:21:51.870Z,7.02
2022-09-28T04:24:20.329Z,7.05
2022-09-28T04:26:50.833Z,7.16
2022-09-28T04:29:19.264Z,7.11
2022-09-28T04:31:51.482Z,7.18
2022-09-28T04:34:22.745Z,7.12
2022-09-28T04:36:50.094Z,7.22
2022-09-28T04:39:17.979Z,7.25
2022-09-28T04:41:49.252Z,7.18
2022-09-28T04:44:17.139Z,7.25
2022-09-28T04:46:45.632Z,7.15
2022-09-28T04:49:37.114Z,7.11
2022-09-28T04:52:08.765Z,7.25
2022-09-28T04:54:36.037Z,7.28
2022-09-28T04:57:03.802Z,6.78
2022-09-28T04:59:30.584Z,7.25
2022-09-28T05:01:58.453Z,7.27
2022-09-28T05:05:05.127Z,7.36
2022-09-28T05:07:58.629Z,7.36
2022-09-28T05:10:25.458Z,7.33
2022-09-28T05:12:54.164Z,7.39
2022-09-28T05:15:22.029Z,7.38
2022-09-28T05:17:49.308Z,6.87
2022-09-28T05:20:40.602Z,7.43
2022-09-28T05:23:12.313Z,7.38
2022-09-28T05:25:42.092Z,7.53
2022-09-28T05:28:44.640Z,7.58
2022-09-28T05:31:30.505Z,7.30
2022-09-28T05:34:08.291Z,7.33
2022-09-28T05:36:35.698Z,7.55
2022-09-28T05:39:03.911Z,7.57
2022-09-28T05:41:31.314Z,7.50
2022-09-28T05:44:00.193Z,7.59
2022-09-28T05:46:27.777Z,7.62
2022-09-28T05:48:56.124Z,7.47
2022-09-28T05:51:25.346Z,7.58
2022-09-28T05:53:58.814Z,7.64
2022-09-28T05:56:30.766Z,7.50
2022-09-28T05:58:58.679Z,7.39
2022-09-28T06:01:29.889Z,7.60
2022-09-28T06:03:59.242Z,7.56
2022-09-28T06:06:26.111Z,7.59
2022-09-28T06:08:52.987Z,7.46
2022-09-28T06:11:35.528Z,7.64
2022-09-28T06:14:09.925Z,7.19
2022-09-28T06:16:41.632Z,7.50
2022-09-28T06:19:12.101Z,7.68
2022-09-28T06:21:59.290Z,7.65
2022-09-28T06:24:26.344Z,7.51
2022-09-28T06:26:53.045Z,7.19
2022-09-28T06:30:11.581Z,7.66
2022-09-28T06:32:40.124Z,7.69
2022-09-28T06:35:08.760Z,7.67
2022-09-28T06:37:36.676Z,7.74
2022-09-28T06:40:03.743Z,7.74
2022-09-28T06:42:31.020Z,7.62
2022-09-28T06:45:21.841Z,8.07
2022-09-28T06:48:11.600Z,8.12
2022-09-28T06:50:41.096Z,8.24
2022-09-28T06:53:14.468Z,8.30
2022-09-28T06:55:49.950Z,8.10
2022-09-28T06:58:19.688Z,8.38
2022-09-28T07:09:23.818Z,8.45
2022-09-28T07:12:23.172Z,8.46
2022-09-28T07:15:13.069Z,8.62
2022-09-28T07:17:55.362Z,8.26
2022-09-28T07:20:25.370Z,8.45
2022-09-28T07:23:08.714Z,8.53
2022-09-28T07:26:05.820Z,8.48
2022-09-28T07:28:55.752Z,8.64
2022-09-28T07:31:38.195Z,8.82
2022-09-28T07:34:43.998Z,8.80
2022-09-28T07:37:15.770Z,8.73
2022-09-28T07:40:01.739Z,8.84
2022-09-28T07:42:31.227Z,8.89
2022-09-28T07:44:58.885Z,8.96
2022-09-28T07:47:30.861Z,8.98
2022-09-28T07:50:13.785Z,8.92
2022-09-28T07:52:53.141Z,8.76
2022-09-28T07:56:07.347Z,8.73
2022-09-28T07:58:41.524Z,8.67
2022-09-28T08:01:37.727Z,8.87
2022-09-28T08:04:06.451Z,8.88
2022-09-28T08:06:34.815Z,8.74
2022-09-28T08:09:03.491Z,8.83
2022-09-28T08:11:49.985Z,8.78
2022-09-28T08:14:34.289Z,8.74
2022-09-28T08:17:11.693Z,8.76
2022-09-28T08:20:05.686Z,8.77
2022-09-28T08:22:32.373Z,8.68
2022-09-28T08:25:00.204Z,8.60
2022-09-28T08:27:26.995Z,8.53
2022-09-28T08:29:53.919Z,8.39
2022-09-28T08:32:38.806Z,8.36
2022-09-28T08:35:25.676Z,8.49
2022-09-28T08:38:33.474Z,8.63
2022-09-28T08:41:49.114Z,8.72
2022-09-28T08:48:08.259Z,8.51
2022-09-28T08:50:51.087Z,8.60
2022-09-28T08:53:47.793Z,8.60
2022-09-28T08:56:29.807Z,8.78
2022-09-28T08:59:08.713Z,8.60
2022-09-28T09:01:39.409Z,8.91
2022-09-28T09:04:12.703Z,8.99
2022-09-28T09:07:34.573Z,9.08
2022-09-28T09:10:13.624Z,9.09
2022-09-28T09:12:58.850Z,9.29
2022-09-28T09:15:56.401Z,9.35
2022-09-28T09:19:06.221Z,9.53
2022-09-28T09:22:01.706Z,9.51
2022-09-28T09:24:40.789Z,9.66
2022-09-28T09:27:32.627Z,9.97
2022-09-28T09:30:09.384Z,10.06
2022-09-28T09:33:07.842Z,10.09
2022-09-28T09:36:19.445Z,9.86
2022-09-28T09:39:17.950Z,9.88
2022-09-28T09:42:23.620Z,10.05
2022-09-28T09:45:23.749Z,9.90
2022-09-28T09:48:16.968Z,9.75
2022-09-28T09:50:49.687Z,9.72
2022-09-28T09:53:27.851Z,9.84
2022-09-28T09:55:58.421Z,9.74
2022-09-28T09:58:36.734Z,9.56
2022-09-28T10:01:38.904Z,9.88
2022-09-28T10:04:21.059Z,9.98
2022-09-28T10:06:49.796Z,9.85
2022-09-28T10:09:26.210Z,9.73
2022-09-28T10:11:55.606Z,9.80
2022-09-28T10:14:24.471Z,9.61
2022-09-28T10:17:04.207Z,9.87
2022-09-28T10:20:03.803Z,9.68
2022-09-28T10:22:36.501Z,9.55
2022-09-28T10:25:10.786Z,9.62
2022-09-28T10:27:42.122Z,9.67
2022-09-28T10:30:18.194Z,9.57
2022-09-28T10:32:47.837Z,9.79
2022-09-28T10:35:27.125Z,9.88
2022-09-28T10:38:06.805Z,10.02
2022-09-28T10:41:37.849Z,10.06
2022-09-28T10:44:15.632Z,10.18
2022-09-28T10:47:23.463Z,10.31
2022-09-28T10:49:51.247Z,10.15
2022-09-28T10:52:37.584Z,10.21
2022-09-28T10:55:26.109Z,9.88
2022-09-28T10:57:53.181Z,9.76
2022-09-28T11:00:58.089Z,9.60
2022-09-28T11:03:28.112Z,9.71
2022-09-28T11:06:03.897Z,9.58
2022-09-28T11:08:44.615Z,9.59
2022-09-28T11:11:21.162Z,9.66
2022-09-28T11:13:56.551Z,9.50
2022-09-28T11:16:34.604Z,9.63
2022-09-28T11:19:28.799Z,9.71
2022-09-28T11:21:55.590Z,9.81
2022-09-28T11:24:31.399Z,9.63
2022-09-28T11:27:02.234Z,9.77
2022-09-28T11:29:35.919Z,9.82
2022-09-28T11:32:29.790Z,9.73
2022-09-28T11:35:22.053Z,9.82
2022-09-28T11:38:13.193Z,9.89
2022-09-28T11:41:13.997Z,9.82
2022-09-28T11:44:21.862Z,9.78
2022-09-28T11:47:16.911Z,9.81
2022-09-28T11:49:49.756Z,10.03
2022-09-28T11:52:40.286Z,10.05
2022-09-28T11:55:36.713Z,10.05
2022-09-28T11:58:15.787Z,9.93
2022-09-28T12:00:47.558Z,9.87
2022-09-28T12:03:25.619Z,9.73
2022-09-28T12:06:00.446Z,9.92
2022-09-28T12:08:33.483Z,9.81
2022-09-28T12:11:23.425Z,9.92
2022-09-28T12:14:18.365Z,9.98
2022-09-28T12:17:07.696Z,10.16
2022-09-28T12:20:02.250Z,10.23
2022-09-28T12:22:39.652Z,10.18
2022-09-28T12:25:11.675Z,10.10
2022-09-28T12:28:07.134Z,10.14
2022-09-28T12:30:37.455Z,10.17
2022-09-28T12:33:12.431Z,9.82
2022-09-28T12:36:06.005Z,9.82
2022-09-28T12:39:08.750Z,10.04
2022-09-28T12:41:50.825Z,10.07
2022-09-28T12:44:42.113Z,9.93
2022-09-28T12:47:27.580Z,9.93
2022-09-28T12:54:18.320Z,9.98
2022-09-28T12:57:12.269Z,10.06
2022-09-28T12:59:42.701Z,9.91
2022-09-28T13:02:22.954Z,9.96
2022-09-28T13:04:50.692Z,9.86
2022-09-28T13:07:26.405Z,9.82
2022-09-28T13:10:12.138Z,9.90
2022-09-28T13:13:19.362Z,9.94
2022-09-28T13:15:59.148Z,9.96
2022-09-28T13:18:42.787Z,10.04
2022-09-28T13:21:15.398Z,9.97
2022-09-28T13:23:44.071Z,10.08
2022-09-28T13:26:28.055Z,9.94
2022-09-28T13:29:00.442Z,10.01
2022-09-28T13:31:32.452Z,9.89
2022-09-28T13:34:02.970Z,10.00
2022-09-28T13:36:30.077Z,10.14
2022-09-28T13:38:59.423Z,10.04
2022-09-28T13:41:37.614Z,10.06
2022-09-28T13:44:13.335Z,10.17
2022-09-28T13:47:06.174Z,10.12
2022-09-28T13:49:45.710Z,10.15
2022-09-28T13:52:25.716Z,10.16
2022-09-28T13:55:11.606Z,10.22
2022-09-28T13:57:48.936Z,10.17
2022-09-28T14:00:27.832Z,10.11
2022-09-28T14:03:22.192Z,9.91
2022-09-28T14:06:21.777Z,9.94
2022-09-28T14:09:13.439Z,9.97
2022-09-28T14:11:53.300Z,9.92
2022-09-28T14:14:29.918Z,9.80
2022-09-28T14:17:23.486Z,9.68
2022-09-28T14:19:53.428Z,9.80
2022-09-28T14:22:27.364Z,9.76
2022-09-28T14:24:54.746Z,9.61
2022-09-28T14:27:41.738Z,9.56
2022-09-28T14:30:11.448Z,9.52
2022-09-28T14:32:49.192Z,9.42
2022-09-28T14:35:40.086Z,9.56
2022-09-28T14:39:16.022Z,9.56
2022-09-28T14:41:44.010Z,9.52
2022-09-28T14:44:12.359Z,9.60
2022-09-28T14:46:44.706Z,9.62
2022-09-28T14:49:19.456Z,9.61
2022-09-28T14:51:58.379Z,9.61
2022-09-28T14:54:27.027Z,9.52
2022-09-28T14:56:53.593Z,9.59
2022-09-28T14:59:30.354Z,9.63
2022-09-28T15:02:03.491Z,9.55
2022-09-28T15:04:31.236Z,9.48
2022-09-28T15:06:58.084Z,9.45
2022-09-28T15:09:36.676Z,9.42
2022-09-28T15:12:15.098Z,9.56
2022-09-28T15:15:02.257Z,9.49
2022-09-28T15:17:34.654Z,9.38
2022-09-28T15:20:29.961Z,9.45
2022-09-28T15:22:58.889Z,9.22
2022-09-28T15:25:28.649Z,9.25
2022-09-28T15:28:17.261Z,9.37
2022-09-28T15:30:43.922Z,9.32
2022-09-28T15:33:43.298Z,9.26
2022-09-28T15:36:16.692Z,9.24
2022-09-28T15:38:43.452Z,9.27
2022-09-28T15:41:11.121Z,9.25
2022-09-28T15:43:38.234Z,9.16
2022-09-28T15:46:19.092Z,9.21
2022-09-28T15:48:53.209Z,9.28
2022-09-28T15:51:22.296Z,9.24
2022-09-28T15:54:00.046Z,9.16
2022-09-28T15:56:27.545Z,8.88
2022-09-28T15:59:15.418Z,9.14
2022-09-28T16:01:44.624Z,8.90
2022-09-28T16:05:00.932Z,8.66
2022-09-28T16:07:33.505Z,8.82
2022-09-28T16:10:04.872Z,8.83
2022-09-28T16:12:37.246Z,8.86
2022-09-28T16:15:34.301Z,8.77
2022-09-28T16:18:18.044Z,8.74
2022-09-28T16:20:49.531Z,8.65
2022-09-28T16:23:20.952Z,8.71
2022-09-28T16:26:11.219Z,8.60
2022-09-28T16:28:40.789Z,8.75
2022-09-28T16:31:13.368Z,8.76
2022-09-28T16:33:41.151Z,8.80
2022-09-28T16:36:15.398Z,8.65
2022-09-28T16:38:45.432Z,8.53
2022-09-28T16:41:13.393Z,8.40
2022-09-28T16:43:41.441Z,8.31
2022-09-28T16:46:12.827Z,8.20
2022-09-28T16:48:48.464Z,8.35
2022-09-28T16:51:20.029Z,8.25
2022-09-28T16:54:06.341Z,8.33
2022-09-28T16:56:33.507Z,8.44
2022-09-28T16:59:01.128Z,8.43
2022-09-28T17:01:32.286Z,8.45
2022-09-28T17:04:01.663Z,8.41
2022-09-28T17:06:28.301Z,8.41
2022-09-28T17:08:56.665Z,8.18
2022-09-28T17:11:24.963Z,8.27
2022-09-28T17:13:52.255Z,8.16
2022-09-28T17:16:32.638Z,8.04
2022-09-28T17:19:05.503Z,7.87
2022-09-28T17:21:32.176Z,8.05
2022-09-28T17:23:59.795Z,8.02
2022-09-28T17:26:30.660Z,8.13
2022-09-28T17:29:01.652Z,7.56
2022-09-28T17:31:29.484Z,8.16
2022-09-28T17:33:56.149Z,8.24
2022-09-28T17:36:22.922Z,8.22
2022-09-28T17:38:51.722Z,8.03
2022-09-28T17:41:21.061Z,8.09
2022-09-28T17:43:49.283Z,8.07
2022-09-28T17:46:27.712Z,7.84
2022-09-28T17:48:59.420Z,7.98
2022-09-28T17:51:31.176Z,7.97
2022-09-28T17:53:58.633Z,7.94
2022-09-28T17:56:31.685Z,7.94
2022-09-28T17:59:01.602Z,7.88
2022-09-28T18:01:34.902Z,7.86
2022-09-28T18:04:05.022Z,7.89
2022-09-28T18:07:30.951Z,8.02
2022-09-28T18:09:58.268Z,7.99
2022-09-28T18:12:25.035Z,7.99
2022-09-28T18:14:53.362Z,8.10
2022-09-28T18:17:19.967Z,7.86
2022-09-28T18:19:46.603Z,7.86
2022-09-28T18:22:13.250Z,7.95
2022-09-28T18:24:39.974Z,7.78
2022-09-28T18:27:06.990Z,6.91
2022-09-28T18:29:34.968Z,7.54
2022-09-28T18:32:02.455Z,7.80
2022-09-28T18:34:29.111Z,7.30
2022-09-28T18:36:55.823Z,7.25
2022-09-28T18:39:23.803Z,7.76
2022-09-28T18:41:51.543Z,7.43
2022-09-28T18:44:18.954Z,7.78
2022-09-28T18:46:45.604Z,7.86
2022-09-28T18:49:12.318Z,7.83
2022-09-28T18:51:43.515Z,7.73
2022-09-28T18:54:10.144Z,7.69
2022-09-28T18:56:38.001Z,7.74
2022-09-28T18:59:11.712Z,7.38
2022-09-28T19:01:41.481Z,7.90
2022-09-28T19:04:12.141Z,7.83
2022-09-28T19:06:41.235Z,7.79
2022-09-28T19:09:08.833Z,7.71
2022-09-28T19:11:36.285Z,7.96
2022-09-28T19:14:15.004Z,7.86
2022-09-28T19:16:43.958Z,7.96
2022-09-28T19:19:13.052Z,8.00
2022-09-28T19:21:40.341Z,7.87
2022-09-28T19:24:07.009Z,7.48
2022-09-28T19:26:33.954Z,7.87
2022-09-28T19:29:02.403Z,7.89
2022-09-28T19:31:29.846Z,7.72
2022-09-28T19:33:57.514Z,7.89
2022-09-28T19:36:28.526Z,7.91
2022-09-28T19:38:57.489Z,7.85
2022-09-28T19:41:43.498Z,7.85
2022-09-28T19:44:26.949Z,7.89
2022-09-28T19:47:09.862Z,7.89
2022-09-28T19:49:53.291Z,7.71
2022-09-28T19:52:19.969Z,7.69
2022-09-28T19:54:57.613Z,7.71
2022-09-28T19:57:28.834Z,7.74
2022-09-28T20:00:01.682Z,7.21
2022-09-28T20:02:34.355Z,7.58
2022-09-28T20:05:02.937Z,7.60
2022-09-28T20:07:32.985Z,7.67
2022-09-28T20:09:59.880Z,7.73
2022-09-28T20:12:27.592Z,7.64
2022-09-28T20:14:54.421Z,7.78
2022-09-28T20:17:21.729Z,6.87
2022-09-28T20:19:51.074Z,7.72
2022-09-28T20:22:18.556Z,7.83
2022-09-28T20:24:45.309Z,7.72
2022-09-28T20:27:12.657Z,7.26
2022-09-28T20:29:39.281Z,7.09
2022-09-28T20:32:07.517Z,7.52
2022-09-28T20:34:34.278Z,6.95
2022-09-28T20:37:01.826Z,7.61
2022-09-28T20:39:30.292Z,7.48
2022-09-28T20:41:57.351Z,6.94
2022-09-28T20:44:24.118Z,7.40
2022-09-28T20:46:51.675Z,7.51
2022-09-28T20:49:19.473Z,7.44
2022-09-28T20:51:46.242Z,7.34
2022-09-28T20:54:12.912Z,7.29
2022-09-28T20:56:40.151Z,6.73
2022-09-28T20:59:08.484Z,6.81
2022-09-28T21:02:27.349Z,7.46
2022-09-28T21:04:55.079Z,7.06
2022-09-28T21:07:21.647Z,7.24
2022-09-28T21:09:51.131Z,7.10
2022-09-28T21:12:19.142Z,7.49
2022-09-28T21:14:45.827Z,7.39
2022-09-28T21:17:12.707Z,7.48
2022-09-28T21:19:39.370Z,7.24
2022-09-28T21:22:07.253Z,7.09
2022-09-28T21:25:31.799Z,7.52
2022-09-28T21:27:59.305Z,7.48
2022-09-28T21:30:26.728Z,7.31
2022-09-28T21:32:53.482Z,7.43
2022-09-28T21:35:20.052Z,7.29
2022-09-28T21:37:46.646Z,7.42
2022-09-28T21:40:13.347Z,7.34
2022-09-28T21:42:40.742Z,7.14
2022-09-28T21:45:08.807Z,7.25
2022-09-28T21:48:03.651Z,7.34
2022-09-28T21:50:30.930Z,7.29
2022-09-28T21:52:57.488Z,7.34
2022-09-28T21:55:24.383Z,7.18
2022-09-28T21:57:51.674Z,7.35
2022-09-28T22:00:23.127Z,6.80
2022-09-28T22:02:52.748Z,7.34
2022-09-28T22:05:20.357Z,7.27
2022-09-28T22:07:48.610Z,7.30
2022-09-28T22:10:19.279Z,7.22
2022-09-28T22:12:46.101Z,6.62
2022-09-28T22:15:12.880Z,6.68
2022-09-28T22:17:40.224Z,6.81
2022-09-28T22:20:07.284Z,6.96
2022-09-28T22:22:34.398Z,7.17
2022-09-28T22:25:01.850Z,7.19
2022-09-28T22:27:31.590Z,7.31
2022-09-28T22:29:59.118Z,7.31
2022-09-28T22:33:29.419Z,7.25
2022-09-28T22:35:56.277Z,7.19
2022-09-28T22:38:24.275Z,7.10
2022-09-28T22:40:54.164Z,7.17
2022-09-28T22:43:23.307Z,7.26
2022-09-28T22:46:00.071Z,7.24
2022-09-28T22:48:26.927Z,7.31
2022-09-28T22:50:53.585Z,7.21
2022-09-28T22:53:20.323Z,7.13
2022-09-28T22:55:48.735Z,7.24
2022-09-28T22:58:15.470Z,7.25
2022-09-28T23:00:43.246Z,6.64
2022-09-28T23:03:21.547Z,7.37
2022-09-28T23:05:54.722Z,6.57
2022-09-28T23:08:22.531Z,7.30
2022-09-28T23:10:50.356Z,7.09
2022-09-28T23:13:18.464Z,6.82
2022-09-28T23:16:25.624Z,7.36
2022-09-28T23:18:54.579Z,7.34
2022-09-28T23:21:23.721Z,7.43
2022-09-28T23:23:56.046Z,7.38
2022-09-28T23:26:25.400Z,7.31
2022-09-28T23:28:52.665Z,7.29
2022-09-28T23:31:24.689Z,7.37
2022-09-28T23:33:51.644Z,7.34
2022-09-28T23:36:18.589Z,7.37
2022-09-28T23:38:45.441Z,7.28
2022-09-28T23:41:12.135Z,7.44
2022-09-28T23:43:39.060Z,7.24
2022-09-28T23:46:06.096Z,7.26
2022-09-28T23:48:34.195Z,7.41
2022-09-28T23:51:01.658Z,7.34
2022-09-28T23:53:29.668Z,6.93
2022-09-28T23:55:56.321Z,7.29
2022-09-28T23:58:24.262Z,7.35
